sensor_id;sensor_type;location;lat;lon;timestamp;temperature;humidity
19809;DHT22;48538;32.784;-96.802;2023-04-03T00:00:39;24.20;99.90
19809;DHT22;48538;32.784;-96.802;2023-04-03T00:03:06;24.10;99.90
19809;DHT22;48538;32.784;-96.802;2023-04-03T00:05:35;24.10;99.90
19809;DHT22;48538;32.784;-96.802;2023-04-03T00:08:01;24.00;99.90
19809;DHT22;48538;32.784;-96.802;2023-04-03T00:10:28;24.00;99.90
19809;DHT22;48538;32.784;-96.802;2023-04-03T00:12:55;24.00;99.90
19809;DHT22;48538;32.784;-96.802;2023-04-03T00:15:21;23.80;99.90
19809;DHT22;48538;32.784;-96.802;2023-04-03T00:17:47;23.70;99.90
19809;DHT22;48538;32.784;-96.802;2023-04-03T00:20:14;23.70;99.90
19809;DHT22;48538;32.784;-96.802;2023-04-03T00:22:40;23.80;99.90
19809;DHT22;48538;32.784;-96.802;2023-04-03T00:25:07;23.80;99.90
19809;DHT22;48538;32.784;-96.802;2023-04-03T00:27:35;23.70;99.90
19809;DHT22;48538;32.784;-96.802;2023-04-03T00:30:03;23.60;99.90
19809;DHT22;48538;32.784;-96.802;2023-04-03T00:32:29;23.50;99.90
19809;DHT22;48538;32.784;-96.802;2023-04-03T00:34:56;23.50;99.90
19809;DHT22;48538;32.784;-96.802;2023-04-03T00:37:22;23.50;99.90
19809;DHT22;48538;32.784;-96.802;2023-04-03T00:39:48;23.50;99.90
19809;DHT22;48538;32.784;-96.802;2023-04-03T00:42:15;23.40;99.90
19809;DHT22;48538;32.784;-96.802;2023-04-03T00:47:12;23.40;99.90
19809;DHT22;48538;32.784;-96.802;2023-04-03T00:49:40;23.30;99.90
19809;DHT22;48538;32.784;-96.802;2023-04-03T00:52:14;23.40;99.90
19809;DHT22;48538;32.784;-96.802;2023-04-03T00:54:42;23.40;99.90
19809;DHT22;48538;32.784;-96.802;2023-04-03T00:57:10;23.40;99.90
19809;DHT22;48538;32.784;-96.802;2023-04-03T00:59:42;23.30;99.90
19809;DHT22;48538;32.784;-96.802;2023-04-03T01:02:10;23.30;99.90
19809;DHT22;48538;32.784;-96.802;2023-04-03T01:04:39;23.20;99.90
19809;DHT22;48538;32.784;-96.802;2023-04-03T01:07:12;23.10;99.90
19809;DHT22;48538;32.784;-96.802;2023-04-03T01:09:39;23.10;99.90
19809;DHT22;48538;32.784;-96.802;2023-04-03T01:12:17;23.00;99.90
19809;DHT22;48538;32.784;-96.802;2023-04-03T01:14:45;22.80;99.90
19809;DHT22;48538;32.784;-96.802;2023-04-03T01:20:24;22.90;99.90
19809;DHT22;48538;32.784;-96.802;2023-04-03T01:25:44;23.10;99.90
19809;DHT22;48538;32.784;-96.802;2023-04-03T01:28:27;23.00;99.90
19809;DHT22;48538;32.784;-96.802;2023-04-03T01:33:39;22.80;99.90
19809;DHT22;48538;32.784;-96.802;2023-04-03T01:36:06;22.90;99.90
19809;DHT22;48538;32.784;-96.802;2023-04-03T01:38:33;22.80;99.90
19809;DHT22;48538;32.784;-96.802;2023-04-03T01:40:59;22.80;99.90
19809;DHT22;48538;32.784;-96.802;2023-04-03T01:43:26;22.70;99.90
19809;DHT22;48538;32.784;-96.802;2023-04-03T01:45:52;22.70;99.90
19809;DHT22;48538;32.784;-96.802;2023-04-03T01:48:20;22.60;99.90
19809;DHT22;48538;32.784;-96.802;2023-04-03T01:50:47;22.50;99.90
19809;DHT22;48538;32.784;-96.802;2023-04-03T01:53:13;22.50;99.90
19809;DHT22;48538;32.784;-96.802;2023-04-03T01:55:40;22.50;99.90
19809;DHT22;48538;32.784;-96.802;2023-04-03T01:58:06;22.50;99.90
19809;DHT22;48538;32.784;-96.802;2023-04-03T02:00:32;22.50;99.90
19809;DHT22;48538;32.784;-96.802;2023-04-03T02:02:59;22.40;99.90
19809;DHT22;48538;32.784;-96.802;2023-04-03T02:05:26;22.40;99.90
19809;DHT22;48538;32.784;-96.802;2023-04-03T02:07:52;22.40;99.90
19809;DHT22;48538;32.784;-96.802;2023-04-03T02:10:18;22.40;99.90
19809;DHT22;48538;32.784;-96.802;2023-04-03T02:12:45;22.40;99.90
19809;DHT22;48538;32.784;-96.802;2023-04-03T02:15:11;22.40;99.90
19809;DHT22;48538;32.784;-96.802;2023-04-03T02:17:37;22.40;99.90
19809;DHT22;48538;32.784;-96.802;2023-04-03T02:20:07;22.40;99.90
19809;DHT22;48538;32.784;-96.802;2023-04-03T02:22:34;22.40;99.90
19809;DHT22;48538;32.784;-96.802;2023-04-03T02:25:00;22.30;99.90
19809;DHT22;48538;32.784;-96.802;2023-04-03T02:27:26;22.30;99.90
19809;DHT22;48538;32.784;-96.802;2023-04-03T02:29:53;22.30;99.90
19809;DHT22;48538;32.784;-96.802;2023-04-03T02:32:19;22.40;99.90
19809;DHT22;48538;32.784;-96.802;2023-04-03T02:34:46;22.40;99.90
19809;DHT22;48538;32.784;-96.802;2023-04-03T02:37:12;22.30;99.90
19809;DHT22;48538;32.784;-96.802;2023-04-03T02:39:38;22.30;99.90
19809;DHT22;48538;32.784;-96.802;2023-04-03T02:42:05;22.40;99.90
19809;DHT22;48538;32.784;-96.802;2023-04-03T02:44:31;22.30;99.90
19809;DHT22;48538;32.784;-96.802;2023-04-03T02:46:57;22.30;99.90
19809;DHT22;48538;32.784;-96.802;2023-04-03T02:49:24;22.30;99.90
19809;DHT22;48538;32.784;-96.802;2023-04-03T02:51:50;22.30;99.90
19809;DHT22;48538;32.784;-96.802;2023-04-03T02:54:17;22.20;99.90
19809;DHT22;48538;32.784;-96.802;2023-04-03T02:56:43;22.20;99.90
19809;DHT22;48538;32.784;-96.802;2023-04-03T02:59:09;22.20;99.90
19809;DHT22;48538;32.784;-96.802;2023-04-03T03:01:36;22.20;99.90
19809;DHT22;48538;32.784;-96.802;2023-04-03T03:04:02;22.30;99.90
19809;DHT22;48538;32.784;-96.802;2023-04-03T03:06:28;22.30;99.90
19809;DHT22;48538;32.784;-96.802;2023-04-03T03:08:55;22.30;99.90
19809;DHT22;48538;32.784;-96.802;2023-04-03T03:11:21;22.30;99.90
19809;DHT22;48538;32.784;-96.802;2023-04-03T03:13:47;22.20;99.90
19809;DHT22;48538;32.784;-96.802;2023-04-03T03:16:14;22.30;99.90
19809;DHT22;48538;32.784;-96.802;2023-04-03T03:18:40;22.50;99.90
19809;DHT22;48538;32.784;-96.802;2023-04-03T03:21:08;22.50;99.90
19809;DHT22;48538;32.784;-96.802;2023-04-03T03:23:35;22.60;99.90
19809;DHT22;48538;32.784;-96.802;2023-04-03T03:26:05;22.60;99.90
19809;DHT22;48538;32.784;-96.802;2023-04-03T03:28:32;22.60;99.90
19809;DHT22;48538;32.784;-96.802;2023-04-03T03:30:59;22.60;99.90
19809;DHT22;48538;32.784;-96.802;2023-04-03T03:33:28;22.40;99.90
19809;DHT22;48538;32.784;-96.802;2023-04-03T03:35:54;22.40;99.90
19809;DHT22;48538;32.784;-96.802;2023-04-03T03:38:21;22.30;99.90
19809;DHT22;48538;32.784;-96.802;2023-04-03T03:40:48;22.20;99.90
19809;DHT22;48538;32.784;-96.802;2023-04-03T03:43:18;22.20;99.90
19809;DHT22;48538;32.784;-96.802;2023-04-03T03:45:45;22.20;99.90
19809;DHT22;48538;32.784;-96.802;2023-04-03T03:48:12;22.20;99.90
19809;DHT22;48538;32.784;-96.802;2023-04-03T03:50:38;22.10;99.90
19809;DHT22;48538;32.784;-96.802;2023-04-03T03:53:04;22.20;99.90
19809;DHT22;48538;32.784;-96.802;2023-04-03T03:55:31;22.20;99.90
19809;DHT22;48538;32.784;-96.802;2023-04-03T03:57:57;22.20;99.90
19809;DHT22;48538;32.784;-96.802;2023-04-03T04:00:23;22.20;99.90
19809;DHT22;48538;32.784;-96.802;2023-04-03T04:02:50;22.10;99.90
19809;DHT22;48538;32.784;-96.802;2023-04-03T04:05:16;22.10;99.90
19809;DHT22;48538;32.784;-96.802;2023-04-03T04:07:46;22.00;99.90
19809;DHT22;48538;32.784;-96.802;2023-04-03T04:10:12;21.80;99.90
19809;DHT22;48538;32.784;-96.802;2023-04-03T04:12:39;21.80;99.90
19809;DHT22;48538;32.784;-96.802;2023-04-03T04:15:06;21.70;99.90
19809;DHT22;48538;32.784;-96.802;2023-04-03T04:17:32;21.70;99.90
19809;DHT22;48538;32.784;-96.802;2023-04-03T04:20:02;21.60;99.90
19809;DHT22;48538;32.784;-96.802;2023-04-03T04:22:28;21.60;99.90
19809;DHT22;48538;32.784;-96.802;2023-04-03T04:24:55;21.60;99.90
19809;DHT22;48538;32.784;-96.802;2023-04-03T04:27:21;21.50;99.90
19809;DHT22;48538;32.784;-96.802;2023-04-03T04:29:47;21.50;99.90
19809;DHT22;48538;32.784;-96.802;2023-04-03T04:32:14;21.40;99.90
19809;DHT22;48538;32.784;-96.802;2023-04-03T04:34:40;21.30;99.90
19809;DHT22;48538;32.784;-96.802;2023-04-03T04:37:06;21.30;99.90
19809;DHT22;48538;32.784;-96.802;2023-04-03T04:39:35;21.30;99.90
19809;DHT22;48538;32.784;-96.802;2023-04-03T04:42:02;21.10;99.90
19809;DHT22;48538;32.784;-96.802;2023-04-03T04:44:28;21.20;99.90
19809;DHT22;48538;32.784;-96.802;2023-04-03T04:46:55;21.10;99.90
19809;DHT22;48538;32.784;-96.802;2023-04-03T04:49:21;21.10;99.90
19809;DHT22;48538;32.784;-96.802;2023-04-03T04:51:47;21.00;99.90
19809;DHT22;48538;32.784;-96.802;2023-04-03T04:54:14;21.10;99.90
19809;DHT22;48538;32.784;-96.802;2023-04-03T04:56:40;20.90;99.90
19809;DHT22;48538;32.784;-96.802;2023-04-03T04:59:06;20.80;99.90
19809;DHT22;48538;32.784;-96.802;2023-04-03T05:01:33;20.80;99.90
19809;DHT22;48538;32.784;-96.802;2023-04-03T05:03:59;20.80;99.90
19809;DHT22;48538;32.784;-96.802;2023-04-03T05:06:25;20.70;99.90
19809;DHT22;48538;32.784;-96.802;2023-04-03T05:08:52;20.70;99.90
19809;DHT22;48538;32.784;-96.802;2023-04-03T05:11:18;20.70;99.90
19809;DHT22;48538;32.784;-96.802;2023-04-03T05:13:46;20.70;99.90
19809;DHT22;48538;32.784;-96.802;2023-04-03T05:16:12;20.60;99.90
19809;DHT22;48538;32.784;-96.802;2023-04-03T05:18:38;20.60;99.90
19809;DHT22;48538;32.784;-96.802;2023-04-03T05:21:05;20.60;99.90
19809;DHT22;48538;32.784;-96.802;2023-04-03T05:23:34;20.50;99.90
19809;DHT22;48538;32.784;-96.802;2023-04-03T05:26:00;20.60;99.90
19809;DHT22;48538;32.784;-96.802;2023-04-03T05:28:26;20.50;99.90
19809;DHT22;48538;32.784;-96.802;2023-04-03T05:30:57;20.50;99.90
19809;DHT22;48538;32.784;-96.802;2023-04-03T05:33:25;20.50;99.90
19809;DHT22;48538;32.784;-96.802;2023-04-03T05:35:53;20.60;99.90
19809;DHT22;48538;32.784;-96.802;2023-04-03T05:38:19;20.60;99.90
19809;DHT22;48538;32.784;-96.802;2023-04-03T05:40:46;20.60;99.90
19809;DHT22;48538;32.784;-96.802;2023-04-03T05:43:12;20.50;99.90
19809;DHT22;48538;32.784;-96.802;2023-04-03T05:45:39;20.50;99.90
19809;DHT22;48538;32.784;-96.802;2023-04-03T05:48:05;20.50;99.90
19809;DHT22;48538;32.784;-96.802;2023-04-03T05:50:31;20.50;99.90
19809;DHT22;48538;32.784;-96.802;2023-04-03T05:52:59;20.60;99.90
19809;DHT22;48538;32.784;-96.802;2023-04-03T05:55:29;20.60;99.90
19809;DHT22;48538;32.784;-96.802;2023-04-03T05:57:59;20.60;99.90
19809;DHT22;48538;32.784;-96.802;2023-04-03T06:00:26;20.50;99.90
19809;DHT22;48538;32.784;-96.802;2023-04-03T06:02:54;20.50;99.90
19809;DHT22;48538;32.784;-96.802;2023-04-03T06:05:23;20.50;99.90
19809;DHT22;48538;32.784;-96.802;2023-04-03T06:07:54;20.40;99.90
19809;DHT22;48538;32.784;-96.802;2023-04-03T06:10:21;20.40;99.90
19809;DHT22;48538;32.784;-96.802;2023-04-03T06:12:48;20.30;99.90
19809;DHT22;48538;32.784;-96.802;2023-04-03T06:15:16;20.40;99.90
19809;DHT22;48538;32.784;-96.802;2023-04-03T06:17:44;20.40;99.90
19809;DHT22;48538;32.784;-96.802;2023-04-03T06:20:12;20.40;99.90
19809;DHT22;48538;32.784;-96.802;2023-04-03T06:22:39;20.40;99.90
19809;DHT22;48538;32.784;-96.802;2023-04-03T06:25:06;20.40;99.90
19809;DHT22;48538;32.784;-96.802;2023-04-03T06:27:35;20.30;99.90
19809;DHT22;48538;32.784;-96.802;2023-04-03T06:30:02;20.40;99.90
19809;DHT22;48538;32.784;-96.802;2023-04-03T06:32:29;20.40;99.90
19809;DHT22;48538;32.784;-96.802;2023-04-03T06:34:56;20.30;99.90
19809;DHT22;48538;32.784;-96.802;2023-04-03T06:37:26;20.40;99.90
19809;DHT22;48538;32.784;-96.802;2023-04-03T06:39:54;20.30;99.90
19809;DHT22;48538;32.784;-96.802;2023-04-03T06:42:21;20.30;99.90
19809;DHT22;48538;32.784;-96.802;2023-04-03T06:44:49;20.20;99.90
19809;DHT22;48538;32.784;-96.802;2023-04-03T06:47:16;20.30;99.90
19809;DHT22;48538;32.784;-96.802;2023-04-03T06:49:43;20.20;99.90
19809;DHT22;48538;32.784;-96.802;2023-04-03T06:52:10;20.20;99.90
19809;DHT22;48538;32.784;-96.802;2023-04-03T06:54:38;20.10;99.90
19809;DHT22;48538;32.784;-96.802;2023-04-03T06:57:05;20.20;99.90
19809;DHT22;48538;32.784;-96.802;2023-04-03T06:59:31;20.20;99.90
19809;DHT22;48538;32.784;-96.802;2023-04-03T07:01:58;20.30;99.90
19809;DHT22;48538;32.784;-96.802;2023-04-03T07:04:25;20.20;99.90
19809;DHT22;48538;32.784;-96.802;2023-04-03T07:06:52;20.10;99.90
19809;DHT22;48538;32.784;-96.802;2023-04-03T07:09:18;20.10;99.90
19809;DHT22;48538;32.784;-96.802;2023-04-03T07:11:45;20.10;99.90
19809;DHT22;48538;32.784;-96.802;2023-04-03T07:14:11;20.00;99.90
19809;DHT22;48538;32.784;-96.802;2023-04-03T07:16:40;20.10;99.90
19809;DHT22;48538;32.784;-96.802;2023-04-03T07:19:07;20.00;99.90
19809;DHT22;48538;32.784;-96.802;2023-04-03T07:21:34;20.00;99.90
19809;DHT22;48538;32.784;-96.802;2023-04-03T07:24:01;20.00;99.90
19809;DHT22;48538;32.784;-96.802;2023-04-03T07:26:27;20.00;99.90
19809;DHT22;48538;32.784;-96.802;2023-04-03T07:28:54;19.90;99.90
19809;DHT22;48538;32.784;-96.802;2023-04-03T07:31:20;19.90;99.90
19809;DHT22;48538;32.784;-96.802;2023-04-03T07:33:47;19.90;99.90
19809;DHT22;48538;32.784;-96.802;2023-04-03T07:36:18;19.90;99.90
19809;DHT22;48538;32.784;-96.802;2023-04-03T07:38:45;19.90;99.90
19809;DHT22;48538;32.784;-96.802;2023-04-03T07:41:16;19.80;99.90
19809;DHT22;48538;32.784;-96.802;2023-04-03T07:43:44;19.90;99.90
19809;DHT22;48538;32.784;-96.802;2023-04-03T07:46:11;19.80;99.90
19809;DHT22;48538;32.784;-96.802;2023-04-03T07:48:38;19.80;99.90
19809;DHT22;48538;32.784;-96.802;2023-04-03T07:51:05;19.80;99.90
19809;DHT22;48538;32.784;-96.802;2023-04-03T07:53:32;19.90;99.90
19809;DHT22;48538;32.784;-96.802;2023-04-03T07:55:59;19.90;99.90
19809;DHT22;48538;32.784;-96.802;2023-04-03T07:58:25;19.80;99.90
19809;DHT22;48538;32.784;-96.802;2023-04-03T08:00:52;19.80;99.90
19809;DHT22;48538;32.784;-96.802;2023-04-03T08:03:19;19.80;99.90
19809;DHT22;48538;32.784;-96.802;2023-04-03T08:05:47;19.80;99.90
19809;DHT22;48538;32.784;-96.802;2023-04-03T08:08:17;19.70;99.90
19809;DHT22;48538;32.784;-96.802;2023-04-03T08:10:43;19.70;99.90
19809;DHT22;48538;32.784;-96.802;2023-04-03T08:13:10;19.70;99.90
19809;DHT22;48538;32.784;-96.802;2023-04-03T08:15:36;19.60;99.90
19809;DHT22;48538;32.784;-96.802;2023-04-03T08:18:02;19.70;99.90
19809;DHT22;48538;32.784;-96.802;2023-04-03T08:20:29;19.60;99.90
19809;DHT22;48538;32.784;-96.802;2023-04-03T08:22:56;19.70;99.90
19809;DHT22;48538;32.784;-96.802;2023-04-03T08:25:22;19.60;99.90
19809;DHT22;48538;32.784;-96.802;2023-04-03T08:27:48;19.60;99.90
19809;DHT22;48538;32.784;-96.802;2023-04-03T08:30:15;19.60;99.90
19809;DHT22;48538;32.784;-96.802;2023-04-03T08:32:41;19.60;99.90
19809;DHT22;48538;32.784;-96.802;2023-04-03T08:35:09;19.60;99.90
19809;DHT22;48538;32.784;-96.802;2023-04-03T08:37:37;19.60;99.90
19809;DHT22;48538;32.784;-96.802;2023-04-03T08:40:06;19.60;99.90
19809;DHT22;48538;32.784;-96.802;2023-04-03T08:50:31;19.60;99.90
19809;DHT22;48538;32.784;-96.802;2023-04-03T08:53:01;19.60;99.90
19809;DHT22;48538;32.784;-96.802;2023-04-03T08:55:39;19.60;99.90
19809;DHT22;48538;32.784;-96.802;2023-04-03T08:58:18;19.60;99.90
19809;DHT22;48538;32.784;-96.802;2023-04-03T09:03:21;19.70;99.90
19809;DHT22;48538;32.784;-96.802;2023-04-03T09:06:04;19.60;99.90
19809;DHT22;48538;32.784;-96.802;2023-04-03T09:08:35;19.70;99.90
19809;DHT22;48538;32.784;-96.802;2023-04-03T09:11:20;19.70;99.90
19809;DHT22;48538;32.784;-96.802;2023-04-03T09:16:43;19.70;99.90
19809;DHT22;48538;32.784;-96.802;2023-04-03T09:22:27;19.70;99.90
19809;DHT22;48538;32.784;-96.802;2023-04-03T09:25:02;19.70;99.90
19809;DHT22;48538;32.784;-96.802;2023-04-03T09:27:29;19.80;99.90
19809;DHT22;48538;32.784;-96.802;2023-04-03T09:29:56;19.70;99.90
19809;DHT22;48538;32.784;-96.802;2023-04-03T09:32:33;19.70;99.90
19809;DHT22;48538;32.784;-96.802;2023-04-03T09:35:17;19.80;99.90
19809;DHT22;48538;32.784;-96.802;2023-04-03T09:37:47;19.70;99.90
19809;DHT22;48538;32.784;-96.802;2023-04-03T09:42:58;19.70;99.90
19809;DHT22;48538;32.784;-96.802;2023-04-03T09:45:31;19.70;99.90
19809;DHT22;48538;32.784;-96.802;2023-04-03T09:51:01;19.70;99.90
19809;DHT22;48538;32.784;-96.802;2023-04-03T09:56:24;19.80;99.90
19809;DHT22;48538;32.784;-96.802;2023-04-03T10:01:31;19.70;99.90
19809;DHT22;48538;32.784;-96.802;2023-04-03T10:04:15;19.70;99.90
19809;DHT22;48538;32.784;-96.802;2023-04-03T10:06:48;19.80;99.90
19809;DHT22;48538;32.784;-96.802;2023-04-03T10:09:23;19.70;99.90
19809;DHT22;48538;32.784;-96.802;2023-04-03T10:12:06;19.70;99.90
19809;DHT22;48538;32.784;-96.802;2023-04-03T10:14:38;19.70;99.90
19809;DHT22;48538;32.784;-96.802;2023-04-03T10:22:37;19.70;99.90
19809;DHT22;48538;32.784;-96.802;2023-04-03T10:36:07;19.70;99.90
19809;DHT22;48538;32.784;-96.802;2023-04-03T10:51:07;19.70;99.90
19809;DHT22;48538;32.784;-96.802;2023-04-03T10:53:42;19.70;99.90
19809;DHT22;48538;32.784;-96.802;2023-04-03T10:56:21;19.70;99.90
19809;DHT22;48538;32.784;-96.802;2023-04-03T10:58:57;19.80;99.90
19809;DHT22;48538;32.784;-96.802;2023-04-03T11:01:33;19.80;99.90
19809;DHT22;48538;32.784;-96.802;2023-04-03T11:04:01;19.90;99.90
19809;DHT22;48538;32.784;-96.802;2023-04-03T11:07:08;19.80;99.90
19809;DHT22;48538;32.784;-96.802;2023-04-03T11:09:40;19.80;99.90
19809;DHT22;48538;32.784;-96.802;2023-04-03T11:12:17;19.90;99.90
19809;DHT22;48538;32.784;-96.802;2023-04-03T11:14:48;19.90;99.90
19809;DHT22;48538;32.784;-96.802;2023-04-03T11:20:09;19.90;99.90
19809;DHT22;48538;32.784;-96.802;2023-04-03T11:22:42;19.90;99.90
19809;DHT22;48538;32.784;-96.802;2023-04-03T11:33:24;19.90;99.90
19809;DHT22;48538;32.784;-96.802;2023-04-03T11:36:19;19.90;99.90
19809;DHT22;48538;32.784;-96.802;2023-04-03T11:38:50;19.90;99.90
19809;DHT22;48538;32.784;-96.802;2023-04-03T11:41:33;20.00;99.90
19809;DHT22;48538;32.784;-96.802;2023-04-03T11:44:00;20.00;99.90
19809;DHT22;48538;32.784;-96.802;2023-04-03T11:46:56;20.00;99.90
19809;DHT22;48538;32.784;-96.802;2023-04-03T11:49:58;20.00;99.90
19809;DHT22;48538;32.784;-96.802;2023-04-03T12:32:26;20.10;99.90
19809;DHT22;48538;32.784;-96.802;2023-04-03T12:35:03;20.00;99.90
19809;DHT22;48538;32.784;-96.802;2023-04-03T12:54:12;20.10;99.90
19809;DHT22;48538;32.784;-96.802;2023-04-03T12:56:40;20.10;99.90
19809;DHT22;48538;32.784;-96.802;2023-04-03T13:01:44;20.20;99.90
19809;DHT22;48538;32.784;-96.802;2023-04-03T13:04:18;20.20;99.90
19809;DHT22;48538;32.784;-96.802;2023-04-03T13:06:45;20.20;99.90
19809;DHT22;48538;32.784;-96.802;2023-04-03T13:09:29;20.40;99.90
19809;DHT22;48538;32.784;-96.802;2023-04-03T13:12:16;20.40;99.90
19809;DHT22;48538;32.784;-96.802;2023-04-03T13:14:52;20.40;99.90
19809;DHT22;48538;32.784;-96.802;2023-04-03T13:17:19;20.40;99.90
19809;DHT22;48538;32.784;-96.802;2023-04-03T13:19:47;20.50;99.90
19809;DHT22;48538;32.784;-96.802;2023-04-03T13:22:28;20.50;99.90
19809;DHT22;48538;32.784;-96.802;2023-04-03T13:24:58;20.60;99.90
19809;DHT22;48538;32.784;-96.802;2023-04-03T13:27:26;20.70;99.90
19809;DHT22;48538;32.784;-96.802;2023-04-03T13:29:54;20.80;99.90
19809;DHT22;48538;32.784;-96.802;2023-04-03T13:32:24;20.90;99.90
19809;DHT22;48538;32.784;-96.802;2023-04-03T13:34:51;20.90;99.90
19809;DHT22;48538;32.784;-96.802;2023-04-03T13:37:26;21.00;99.90
19809;DHT22;48538;32.784;-96.802;2023-04-03T13:40:11;21.20;99.90
19809;DHT22;48538;32.784;-96.802;2023-04-03T13:42:39;21.30;99.90
19809;DHT22;48538;32.784;-96.802;2023-04-03T13:47:47;21.50;99.90
19809;DHT22;48538;32.784;-96.802;2023-04-03T13:50:22;21.70;99.90
19809;DHT22;48538;32.784;-96.802;2023-04-03T13:53:12;21.70;99.90
19809;DHT22;48538;32.784;-96.802;2023-04-03T13:56:05;21.70;99.90
19809;DHT22;48538;32.784;-96.802;2023-04-03T13:58:33;21.70;99.90
19809;DHT22;48538;32.784;-96.802;2023-04-03T14:01:14;21.80;99.90
19809;DHT22;48538;32.784;-96.802;2023-04-03T14:03:45;21.70;99.90
19809;DHT22;48538;32.784;-96.802;2023-04-03T14:06:16;21.70;99.90
19809;DHT22;48538;32.784;-96.802;2023-04-03T14:08:43;21.80;99.90
19809;DHT22;48538;32.784;-96.802;2023-04-03T14:13:42;21.80;99.90
19809;DHT22;48538;32.784;-96.802;2023-04-03T14:16:17;21.90;99.90
19809;DHT22;48538;32.784;-96.802;2023-04-03T14:18:45;21.90;99.90
19809;DHT22;48538;32.784;-96.802;2023-04-03T14:21:13;21.90;99.90
19809;DHT22;48538;32.784;-96.802;2023-04-03T14:23:40;21.80;99.90
19809;DHT22;48538;32.784;-96.802;2023-04-03T14:26:14;21.90;99.90
19809;DHT22;48538;32.784;-96.802;2023-04-03T14:28:43;21.90;99.90
19809;DHT22;48538;32.784;-96.802;2023-04-03T14:31:12;22.10;99.90
19809;DHT22;48538;32.784;-96.802;2023-04-03T14:33:40;22.10;99.90
19809;DHT22;48538;32.784;-96.802;2023-04-03T14:36:20;22.10;99.90
19809;DHT22;48538;32.784;-96.802;2023-04-03T14:38:48;22.10;99.90
19809;DHT22;48538;32.784;-96.802;2023-04-03T14:41:18;22.20;99.90
19809;DHT22;48538;32.784;-96.802;2023-04-03T14:43:46;22.30;99.90
19809;DHT22;48538;32.784;-96.802;2023-04-03T14:46:15;22.40;99.90
19809;DHT22;48538;32.784;-96.802;2023-04-03T14:48:42;22.30;99.90
19809;DHT22;48538;32.784;-96.802;2023-04-03T14:51:14;22.30;99.90
19809;DHT22;48538;32.784;-96.802;2023-04-03T14:53:41;22.40;99.90
19809;DHT22;48538;32.784;-96.802;2023-04-03T14:56:21;22.50;99.90
19809;DHT22;48538;32.784;-96.802;2023-04-03T14:58:50;22.60;99.90
19809;DHT22;48538;32.784;-96.802;2023-04-03T15:01:19;22.60;99.90
19809;DHT22;48538;32.784;-96.802;2023-04-03T15:03:46;22.70;99.90
19809;DHT22;48538;32.784;-96.802;2023-04-03T15:06:13;22.60;99.90
19809;DHT22;48538;32.784;-96.802;2023-04-03T15:08:45;22.60;99.90
19809;DHT22;48538;32.784;-96.802;2023-04-03T15:11:13;22.60;99.90
19809;DHT22;48538;32.784;-96.802;2023-04-03T15:13:40;22.60;99.90
19809;DHT22;48538;32.784;-96.802;2023-04-03T15:16:16;22.60;99.90
19809;DHT22;48538;32.784;-96.802;2023-04-03T15:18:44;22.70;99.90
19809;DHT22;48538;32.784;-96.802;2023-04-03T15:21:11;22.70;99.90
19809;DHT22;48538;32.784;-96.802;2023-04-03T15:23:39;22.80;99.90
19809;DHT22;48538;32.784;-96.802;2023-04-03T15:26:06;22.90;99.90
19809;DHT22;48538;32.784;-96.802;2023-04-03T15:28:39;23.00;99.90
19809;DHT22;48538;32.784;-96.802;2023-04-03T15:31:09;23.00;99.90
19809;DHT22;48538;32.784;-96.802;2023-04-03T15:33:36;23.10;99.90
19809;DHT22;48538;32.784;-96.802;2023-04-03T15:36:03;23.20;99.90
19809;DHT22;48538;32.784;-96.802;2023-04-03T15:38:30;23.20;99.90
19809;DHT22;48538;32.784;-96.802;2023-04-03T15:40:56;23.20;99.90
19809;DHT22;48538;32.784;-96.802;2023-04-03T15:43:23;23.30;99.90
19809;DHT22;48538;32.784;-96.802;2023-04-03T15:45:49;23.40;99.90
19809;DHT22;48538;32.784;-96.802;2023-04-03T15:48:17;23.30;99.90
19809;DHT22;48538;32.784;-96.802;2023-04-03T15:50:43;23.40;99.90
19809;DHT22;48538;32.784;-96.802;2023-04-03T15:53:10;23.40;99.90
19809;DHT22;48538;32.784;-96.802;2023-04-03T15:55:38;23.50;99.90
19809;DHT22;48538;32.784;-96.802;2023-04-03T15:58:04;23.50;99.90
19809;DHT22;48538;32.784;-96.802;2023-04-03T16:00:32;23.50;99.90
19809;DHT22;48538;32.784;-96.802;2023-04-03T16:03:11;23.60;99.90
19809;DHT22;48538;32.784;-96.802;2023-04-03T16:05:38;23.60;99.90
19809;DHT22;48538;32.784;-96.802;2023-04-03T16:08:05;23.70;99.90
19809;DHT22;48538;32.784;-96.802;2023-04-03T16:10:34;23.70;99.90
19809;DHT22;48538;32.784;-96.802;2023-04-03T16:13:02;23.80;99.90
19809;DHT22;48538;32.784;-96.802;2023-04-03T16:15:29;23.80;99.90
19809;DHT22;48538;32.784;-96.802;2023-04-03T16:17:57;23.80;99.90
19809;DHT22;48538;32.784;-96.802;2023-04-03T16:20:24;23.90;99.90
19809;DHT22;48538;32.784;-96.802;2023-04-03T16:22:51;24.00;99.90
19809;DHT22;48538;32.784;-96.802;2023-04-03T16:25:17;24.00;99.90
19809;DHT22;48538;32.784;-96.802;2023-04-03T16:27:44;24.10;99.90
19809;DHT22;48538;32.784;-96.802;2023-04-03T16:30:10;24.10;99.90
19809;DHT22;48538;32.784;-96.802;2023-04-03T16:32:38;24.10;99.90
19809;DHT22;48538;32.784;-96.802;2023-04-03T16:35:05;24.20;99.90
19809;DHT22;48538;32.784;-96.802;2023-04-03T16:37:31;24.30;99.90
19809;DHT22;48538;32.784;-96.802;2023-04-03T16:40:01;24.40;99.90
19809;DHT22;48538;32.784;-96.802;2023-04-03T16:42:28;24.40;99.90
19809;DHT22;48538;32.784;-96.802;2023-04-03T16:44:55;24.50;99.90
19809;DHT22;48538;32.784;-96.802;2023-04-03T16:47:21;24.50;99.90
19809;DHT22;48538;32.784;-96.802;2023-04-03T16:49:47;24.50;99.90
19809;DHT22;48538;32.784;-96.802;2023-04-03T16:52:17;24.60;99.90
19809;DHT22;48538;32.784;-96.802;2023-04-03T16:54:43;24.60;99.90
19809;DHT22;48538;32.784;-96.802;2023-04-03T16:57:12;24.60;99.90
19809;DHT22;48538;32.784;-96.802;2023-04-03T16:59:38;24.70;99.90
19809;DHT22;48538;32.784;-96.802;2023-04-03T17:02:05;24.70;99.90
19809;DHT22;48538;32.784;-96.802;2023-04-03T17:04:31;24.80;99.90
19809;DHT22;48538;32.784;-96.802;2023-04-03T17:06:57;24.90;99.90
19809;DHT22;48538;32.784;-96.802;2023-04-03T17:09:25;24.90;99.90
19809;DHT22;48538;32.784;-96.802;2023-04-03T17:11:52;24.90;99.90
19809;DHT22;48538;32.784;-96.802;2023-04-03T17:14:19;25.00;99.90
19809;DHT22;48538;32.784;-96.802;2023-04-03T17:16:45;25.00;99.90
19809;DHT22;48538;32.784;-96.802;2023-04-03T17:19:11;25.00;99.90
19809;DHT22;48538;32.784;-96.802;2023-04-03T17:21:38;25.10;99.90
19809;DHT22;48538;32.784;-96.802;2023-04-03T17:24:06;25.10;99.90
19809;DHT22;48538;32.784;-96.802;2023-04-03T17:26:34;25.20;99.90
19809;DHT22;48538;32.784;-96.802;2023-04-03T17:29:03;25.30;99.90
19809;DHT22;48538;32.784;-96.802;2023-04-03T17:31:31;25.30;99.90
19809;DHT22;48538;32.784;-96.802;2023-04-03T17:33:58;25.40;99.90
19809;DHT22;48538;32.784;-96.802;2023-04-03T17:36:30;25.50;99.90